sensor_id;sensor_type;location;lat;lon;timestamp;P1;durP1;ratioP1;P2;durP2;ratioP2
13163;SDS011;6647;53.688;10.746;2023-10-31T00:00:24;4.20;;;3.13;;
13163;SDS011;6647;53.688;10.746;2023-10-31T00:01:25;5.60;;;3.30;;
13163;SDS011;6647;53.688;10.746;2023-10-31T00:02:25;7.47;;;3.00;;
13163;SDS011;6647;53.688;10.746;2023-10-31T00:03:25;9.57;;;2.90;;
13163;SDS011;6647;53.688;10.746;2023-10-31T00:04:26;8.83;;;3.20;;
13163;SDS011;6647;53.688;10.746;2023-10-31T00:05:26;4.07;;;2.87;;
13163;SDS011;6647;53.688;10.746;2023-10-31T00:06:27;8.90;;;3.30;;
13163;SDS011;6647;53.688;10.746;2023-10-31T00:07:27;5.53;;;3.10;;
13163;SDS011;6647;53.688;10.746;2023-10-31T00:08:27;4.30;;;3.03;;
13163;SDS011;6647;53.688;10.746;2023-10-31T00:09:28;7.10;;;2.90;;
13163;SDS011;6647;53.688;10.746;2023-10-31T00:10:28;6.60;;;2.90;;
13163;SDS011;6647;53.688;10.746;2023-10-31T00:11:29;5.97;;;2.67;;
13163;SDS011;6647;53.688;10.746;2023-10-31T00:12:29;8.77;;;2.80;;
13163;SDS011;6647;53.688;10.746;2023-10-31T00:13:29;4.63;;;2.40;;
13163;SDS011;6647;53.688;10.746;2023-10-31T00:14:30;11.87;;;3.40;;
13163;SDS011;6647;53.688;10.746;2023-10-31T00:15:30;5.40;;;2.40;;
13163;SDS011;6647;53.688;10.746;2023-10-31T00:16:30;5.27;;;3.33;;
13163;SDS011;6647;53.688;10.746;2023-10-31T00:17:31;2.70;;;2.47;;
13163;SDS011;6647;53.688;10.746;2023-10-31T00:18:31;5.30;;;2.67;;
13163;SDS011;6647;53.688;10.746;2023-10-31T00:19:31;5.43;;;2.70;;
13163;SDS011;6647;53.688;10.746;2023-10-31T00:20:32;4.03;;;2.10;;
13163;SDS011;6647;53.688;10.746;2023-10-31T00:21:32;4.10;;;2.60;;
13163;SDS011;6647;53.688;10.746;2023-10-31T00:22:33;4.57;;;2.83;;
13163;SDS011;6647;53.688;10.746;2023-10-31T00:23:33;6.37;;;2.43;;
13163;SDS011;6647;53.688;10.746;2023-10-31T00:24:33;6.23;;;2.90;;
13163;SDS011;6647;53.688;10.746;2023-10-31T00:25:34;3.40;;;2.40;;
13163;SDS011;6647;53.688;10.746;2023-10-31T00:26:34;6.23;;;2.80;;
13163;SDS011;6647;53.688;10.746;2023-10-31T00:27:34;6.00;;;2.73;;
13163;SDS011;6647;53.688;10.746;2023-10-31T00:28:35;5.90;;;2.77;;
13163;SDS011;6647;53.688;10.746;2023-10-31T00:29:35;6.00;;;2.47;;
13163;SDS011;6647;53.688;10.746;2023-10-31T00:30:35;7.10;;;3.20;;
13163;SDS011;6647;53.688;10.746;2023-10-31T00:31:36;6.00;;;2.80;;
13163;SDS011;6647;53.688;10.746;2023-10-31T00:32:36;6.20;;;2.70;;
13163;SDS011;6647;53.688;10.746;2023-10-31T00:33:37;5.23;;;3.07;;
13163;SDS011;6647;53.688;10.746;2023-10-31T00:34:37;7.10;;;3.53;;
13163;SDS011;6647;53.688;10.746;2023-10-31T00:35:38;5.83;;;2.70;;
13163;SDS011;6647;53.688;10.746;2023-10-31T00:36:38;10.97;;;3.30;;
13163;SDS011;6647;53.688;10.746;2023-10-31T00:37:38;4.93;;;3.10;;
13163;SDS011;6647;53.688;10.746;2023-10-31T00:38:42;12.45;;;3.35;;
13163;SDS011;6647;53.688;10.746;2023-10-31T00:39:42;7.07;;;2.97;;
13163;SDS011;6647;53.688;10.746;2023-10-31T00:40:42;4.27;;;2.60;;
13163;SDS011;6647;53.688;10.746;2023-10-31T00:41:45;12.80;;;2.80;;
13163;SDS011;6647;53.688;10.746;2023-10-31T00:42:46;5.78;;;2.78;;
13163;SDS011;6647;53.688;10.746;2023-10-31T00:43:46;5.37;;;2.60;;
13163;SDS011;6647;53.688;10.746;2023-10-31T00:44:46;11.10;;;3.30;;
13163;SDS011;6647;53.688;10.746;2023-10-31T00:45:47;6.90;;;2.90;;
13163;SDS011;6647;53.688;10.746;2023-10-31T00:46:47;5.93;;;2.80;;
13163;SDS011;6647;53.688;10.746;2023-10-31T00:47:47;4.67;;;2.80;;
13163;SDS011;6647;53.688;10.746;2023-10-31T00:48:48;7.17;;;3.10;;
13163;SDS011;6647;53.688;10.746;2023-10-31T00:49:48;8.87;;;3.00;;
13163;SDS011;6647;53.688;10.746;2023-10-31T00:50:48;6.60;;;3.13;;
13163;SDS011;6647;53.688;10.746;2023-10-31T00:51:48;9.70;;;4.13;;
13163;SDS011;6647;53.688;10.746;2023-10-31T00:52:49;8.43;;;2.90;;
13163;SDS011;6647;53.688;10.746;2023-10-31T00:53:49;7.60;;;3.70;;
13163;SDS011;6647;53.688;10.746;2023-10-31T00:54:49;4.97;;;2.33;;
13163;SDS011;6647;53.688;10.746;2023-10-31T00:55:50;4.90;;;3.00;;
13163;SDS011;6647;53.688;10.746;2023-10-31T00:56:50;4.07;;;3.00;;
13163;SDS011;6647;53.688;10.746;2023-10-31T00:57:50;9.53;;;3.47;;
13163;SDS011;6647;53.688;10.746;2023-10-31T00:58:50;5.33;;;3.10;;
13163;SDS011;6647;53.688;10.746;2023-10-31T00:59:51;9.13;;;2.93;;
13163;SDS011;6647;53.688;10.746;2023-10-31T01:00:51;7.40;;;3.30;;
13163;SDS011;6647;53.688;10.746;2023-10-31T01:01:51;9.40;;;3.30;;
13163;SDS011;6647;53.688;10.746;2023-10-31T01:02:52;3.60;;;3.03;;
13163;SDS011;6647;53.688;10.746;2023-10-31T01:03:52;3.17;;;2.80;;
13163;SDS011;6647;53.688;10.746;2023-10-31T01:04:52;10.07;;;3.50;;
13163;SDS011;6647;53.688;10.746;2023-10-31T01:05:52;7.90;;;2.90;;
13163;SDS011;6647;53.688;10.746;2023-10-31T01:06:53;9.07;;;3.83;;
13163;SDS011;6647;53.688;10.746;2023-10-31T01:07:53;8.30;;;3.40;;
13163;SDS011;6647;53.688;10.746;2023-10-31T01:08:54;6.00;;;3.23;;
13163;SDS011;6647;53.688;10.746;2023-10-31T01:09:54;8.90;;;3.47;;
13163;SDS011;6647;53.688;10.746;2023-10-31T01:10:55;7.87;;;3.37;;
13163;SDS011;6647;53.688;10.746;2023-10-31T01:11:55;17.70;;;3.70;;
13163;SDS011;6647;53.688;10.746;2023-10-31T01:12:56;5.80;;;3.20;;
13163;SDS011;6647;53.688;10.746;2023-10-31T01:13:56;8.20;;;3.63;;
13163;SDS011;6647;53.688;10.746;2023-10-31T01:14:56;5.20;;;3.53;;
13163;SDS011;6647;53.688;10.746;2023-10-31T01:15:57;8.53;;;3.90;;
13163;SDS011;6647;53.688;10.746;2023-10-31T01:16:57;3.50;;;3.00;;
13163;SDS011;6647;53.688;10.746;2023-10-31T01:17:57;6.07;;;3.63;;
13163;SDS011;6647;53.688;10.746;2023-10-31T01:18:58;8.90;;;3.70;;
13163;SDS011;6647;53.688;10.746;2023-10-31T01:19:58;6.93;;;3.80;;
13163;SDS011;6647;53.688;10.746;2023-10-31T01:20:58;7.37;;;4.23;;
13163;SDS011;6647;53.688;10.746;2023-10-31T01:21:59;5.90;;;3.53;;
13163;SDS011;6647;53.688;10.746;2023-10-31T01:22:59;11.77;;;4.10;;
13163;SDS011;6647;53.688;10.746;2023-10-31T01:23:59;7.87;;;4.30;;
13163;SDS011;6647;53.688;10.746;2023-10-31T01:25:00;7.13;;;3.83;;
13163;SDS011;6647;53.688;10.746;2023-10-31T01:26:00;5.53;;;3.97;;
13163;SDS011;6647;53.688;10.746;2023-10-31T01:27:00;5.67;;;3.83;;
13163;SDS011;6647;53.688;10.746;2023-10-31T01:28:01;7.17;;;4.23;;
13163;SDS011;6647;53.688;10.746;2023-10-31T01:29:01;7.43;;;4.40;;
13163;SDS011;6647;53.688;10.746;2023-10-31T01:30:01;10.03;;;4.63;;
13163;SDS011;6647;53.688;10.746;2023-10-31T01:31:02;8.30;;;3.80;;
13163;SDS011;6647;53.688;10.746;2023-10-31T01:32:03;6.23;;;4.03;;
13163;SDS011;6647;53.688;10.746;2023-10-31T01:33:03;6.70;;;3.70;;
13163;SDS011;6647;53.688;10.746;2023-10-31T01:34:04;8.67;;;4.10;;
13163;SDS011;6647;53.688;10.746;2023-10-31T01:35:04;10.27;;;4.63;;
13163;SDS011;6647;53.688;10.746;2023-10-31T01:36:05;10.23;;;4.67;;
13163;SDS011;6647;53.688;10.746;2023-10-31T01:37:05;12.67;;;5.37;;
13163;SDS011;6647;53.688;10.746;2023-10-31T01:38:06;10.67;;;4.63;;
13163;SDS011;6647;53.688;10.746;2023-10-31T01:39:06;9.40;;;4.80;;
13163;SDS011;6647;53.688;10.746;2023-10-31T01:40:08;9.27;;;4.97;;
13163;SDS011;6647;53.688;10.746;2023-10-31T01:41:09;12.85;;;5.30;;
13163;SDS011;6647;53.688;10.746;2023-10-31T01:42:09;11.47;;;4.93;;
13163;SDS011;6647;53.688;10.746;2023-10-31T01:43:10;9.80;;;5.63;;
13163;SDS011;6647;53.688;10.746;2023-10-31T01:44:10;14.80;;;5.83;;
13163;SDS011;6647;53.688;10.746;2023-10-31T01:45:11;13.33;;;5.40;;
13163;SDS011;6647;53.688;10.746;2023-10-31T01:46:11;10.80;;;6.00;;
13163;SDS011;6647;53.688;10.746;2023-10-31T01:47:11;19.90;;;6.70;;
13163;SDS011;6647;53.688;10.746;2023-10-31T01:48:12;12.77;;;5.80;;
13163;SDS011;6647;53.688;10.746;2023-10-31T01:49:12;10.57;;;5.73;;
13163;SDS011;6647;53.688;10.746;2023-10-31T01:50:13;13.00;;;6.82;;
13163;SDS011;6647;53.688;10.746;2023-10-31T01:51:14;10.17;;;5.57;;
13163;SDS011;6647;53.688;10.746;2023-10-31T01:52:14;11.17;;;5.67;;
13163;SDS011;6647;53.688;10.746;2023-10-31T01:53:14;10.83;;;5.50;;
13163;SDS011;6647;53.688;10.746;2023-10-31T01:54:15;14.37;;;5.47;;
13163;SDS011;6647;53.688;10.746;2023-10-31T01:55:15;8.47;;;5.93;;
13163;SDS011;6647;53.688;10.746;2023-10-31T01:56:15;9.20;;;5.37;;
13163;SDS011;6647;53.688;10.746;2023-10-31T01:57:16;8.30;;;5.07;;
13163;SDS011;6647;53.688;10.746;2023-10-31T01:58:20;10.20;;;5.47;;
13163;SDS011;6647;53.688;10.746;2023-10-31T01:59:21;8.65;;;5.60;;
13163;SDS011;6647;53.688;10.746;2023-10-31T02:00:21;10.33;;;5.43;;
13163;SDS011;6647;53.688;10.746;2023-10-31T02:01:22;7.50;;;5.10;;
13163;SDS011;6647;53.688;10.746;2023-10-31T02:02:22;12.83;;;5.43;;
13163;SDS011;6647;53.688;10.746;2023-10-31T02:03:23;13.98;;;5.97;;
13163;SDS011;6647;53.688;10.746;2023-10-31T02:04:24;8.27;;;5.10;;
13163;SDS011;6647;53.688;10.746;2023-10-31T02:05:24;10.63;;;4.60;;
13163;SDS011;6647;53.688;10.746;2023-10-31T02:06:26;7.10;;;5.40;;
13163;SDS011;6647;53.688;10.746;2023-10-31T02:07:26;12.50;;;5.00;;
13163;SDS011;6647;53.688;10.746;2023-10-31T02:08:27;8.13;;;5.03;;
13163;SDS011;6647;53.688;10.746;2023-10-31T02:09:27;17.03;;;4.90;;
13163;SDS011;6647;53.688;10.746;2023-10-31T02:10:29;11.40;;;5.40;;
13163;SDS011;6647;53.688;10.746;2023-10-31T02:11:30;8.03;;;4.67;;
13163;SDS011;6647;53.688;10.746;2023-10-31T02:12:36;9.97;;;5.00;;
13163;SDS011;6647;53.688;10.746;2023-10-31T02:13:37;8.38;;;4.90;;
13163;SDS011;6647;53.688;10.746;2023-10-31T02:14:37;8.93;;;5.20;;
13163;SDS011;6647;53.688;10.746;2023-10-31T02:15:38;5.00;;;4.13;;
13163;SDS011;6647;53.688;10.746;2023-10-31T02:16:38;11.40;;;4.43;;
13163;SDS011;6647;53.688;10.746;2023-10-31T02:17:38;10.30;;;4.10;;
13163;SDS011;6647;53.688;10.746;2023-10-31T02:18:39;9.40;;;4.47;;
13163;SDS011;6647;53.688;10.746;2023-10-31T02:19:39;9.67;;;4.53;;
13163;SDS011;6647;53.688;10.746;2023-10-31T02:20:40;9.80;;;4.50;;
13163;SDS011;6647;53.688;10.746;2023-10-31T02:21:40;10.20;;;5.07;;
13163;SDS011;6647;53.688;10.746;2023-10-31T02:22:41;6.87;;;4.30;;
13163;SDS011;6647;53.688;10.746;2023-10-31T02:23:41;11.57;;;5.10;;
13163;SDS011;6647;53.688;10.746;2023-10-31T02:24:41;7.43;;;3.87;;
13163;SDS011;6647;53.688;10.746;2023-10-31T02:25:42;8.63;;;4.10;;
13163;SDS011;6647;53.688;10.746;2023-10-31T02:26:42;6.17;;;4.27;;
13163;SDS011;6647;53.688;10.746;2023-10-31T02:27:42;9.77;;;4.53;;
13163;SDS011;6647;53.688;10.746;2023-10-31T02:28:43;10.97;;;4.00;;
13163;SDS011;6647;53.688;10.746;2023-10-31T02:29:43;8.73;;;4.73;;
13163;SDS011;6647;53.688;10.746;2023-10-31T02:30:43;6.47;;;3.77;;
13163;SDS011;6647;53.688;10.746;2023-10-31T02:31:44;4.87;;;3.97;;
13163;SDS011;6647;53.688;10.746;2023-10-31T02:32:44;7.00;;;4.33;;
13163;SDS011;6647;53.688;10.746;2023-10-31T02:33:44;9.57;;;3.90;;
13163;SDS011;6647;53.688;10.746;2023-10-31T02:34:45;10.57;;;4.40;;
13163;SDS011;6647;53.688;10.746;2023-10-31T02:35:45;10.80;;;3.97;;
13163;SDS011;6647;53.688;10.746;2023-10-31T02:36:45;7.00;;;4.20;;
13163;SDS011;6647;53.688;10.746;2023-10-31T02:37:46;9.63;;;4.00;;
13163;SDS011;6647;53.688;10.746;2023-10-31T02:38:47;5.10;;;4.30;;
13163;SDS011;6647;53.688;10.746;2023-10-31T02:39:47;6.33;;;4.33;;
13163;SDS011;6647;53.688;10.746;2023-10-31T02:40:47;13.87;;;4.60;;
13163;SDS011;6647;53.688;10.746;2023-10-31T02:41:48;9.80;;;4.27;;
13163;SDS011;6647;53.688;10.746;2023-10-31T02:42:48;7.57;;;4.10;;
13163;SDS011;6647;53.688;10.746;2023-10-31T02:43:48;10.43;;;4.53;;
13163;SDS011;6647;53.688;10.746;2023-10-31T02:44:48;7.00;;;4.27;;
13163;SDS011;6647;53.688;10.746;2023-10-31T02:45:49;7.80;;;4.67;;
13163;SDS011;6647;53.688;10.746;2023-10-31T02:46:49;9.07;;;4.63;;
13163;SDS011;6647;53.688;10.746;2023-10-31T02:47:49;7.10;;;4.23;;
13163;SDS011;6647;53.688;10.746;2023-10-31T02:48:50;8.60;;;5.00;;
13163;SDS011;6647;53.688;10.746;2023-10-31T02:49:50;8.67;;;4.00;;
13163;SDS011;6647;53.688;10.746;2023-10-31T02:50:51;10.90;;;5.07;;
13163;SDS011;6647;53.688;10.746;2023-10-31T02:51:51;7.97;;;4.80;;
13163;SDS011;6647;53.688;10.746;2023-10-31T02:52:51;7.47;;;4.27;;
13163;SDS011;6647;53.688;10.746;2023-10-31T02:53:52;7.73;;;4.80;;
13163;SDS011;6647;53.688;10.746;2023-10-31T02:54:52;9.33;;;4.30;;
13163;SDS011;6647;53.688;10.746;2023-10-31T02:55:52;14.07;;;5.23;;
13163;SDS011;6647;53.688;10.746;2023-10-31T02:56:53;6.40;;;4.63;;
13163;SDS011;6647;53.688;10.746;2023-10-31T02:57:53;10.97;;;5.53;;
13163;SDS011;6647;53.688;10.746;2023-10-31T02:58:53;9.83;;;4.30;;
13163;SDS011;6647;53.688;10.746;2023-10-31T02:59:54;6.43;;;4.53;;
13163;SDS011;6647;53.688;10.746;2023-10-31T03:00:54;6.57;;;4.57;;
13163;SDS011;6647;53.688;10.746;2023-10-31T03:01:55;8.33;;;4.30;;
13163;SDS011;6647;53.688;10.746;2023-10-31T03:02:56;7.70;;;4.70;;
13163;SDS011;6647;53.688;10.746;2023-10-31T03:03:56;9.20;;;4.10;;
13163;SDS011;6647;53.688;10.746;2023-10-31T03:04:57;8.60;;;4.50;;
13163;SDS011;6647;53.688;10.746;2023-10-31T03:05:57;5.97;;;4.70;;
13163;SDS011;6647;53.688;10.746;2023-10-31T03:06:57;9.23;;;4.27;;
13163;SDS011;6647;53.688;10.746;2023-10-31T03:07:58;9.10;;;4.70;;
13163;SDS011;6647;53.688;10.746;2023-10-31T03:08:58;8.40;;;4.73;;
13163;SDS011;6647;53.688;10.746;2023-10-31T03:09:58;8.90;;;4.53;;
13163;SDS011;6647;53.688;10.746;2023-10-31T03:10:59;9.70;;;4.27;;
13163;SDS011;6647;53.688;10.746;2023-10-31T03:11:59;9.90;;;4.20;;
13163;SDS011;6647;53.688;10.746;2023-10-31T03:12:59;6.67;;;4.20;;
13163;SDS011;6647;53.688;10.746;2023-10-31T03:14:00;6.57;;;4.87;;
13163;SDS011;6647;53.688;10.746;2023-10-31T03:15:00;10.27;;;4.93;;
13163;SDS011;6647;53.688;10.746;2023-10-31T03:16:00;6.50;;;5.10;;
13163;SDS011;6647;53.688;10.746;2023-10-31T03:17:00;8.00;;;5.20;;
13163;SDS011;6647;53.688;10.746;2023-10-31T03:18:01;10.63;;;5.23;;
13163;SDS011;6647;53.688;10.746;2023-10-31T03:19:02;9.43;;;4.70;;
13163;SDS011;6647;53.688;10.746;2023-10-31T03:20:03;11.47;;;5.10;;
13163;SDS011;6647;53.688;10.746;2023-10-31T03:21:03;9.33;;;5.00;;
13163;SDS011;6647;53.688;10.746;2023-10-31T03:22:04;10.37;;;4.83;;
13163;SDS011;6647;53.688;10.746;2023-10-31T03:23:06;7.35;;;5.25;;
13163;SDS011;6647;53.688;10.746;2023-10-31T03:24:06;8.13;;;5.17;;
13163;SDS011;6647;53.688;10.746;2023-10-31T03:25:06;14.10;;;5.60;;
13163;SDS011;6647;53.688;10.746;2023-10-31T03:26:07;8.37;;;5.03;;
13163;SDS011;6647;53.688;10.746;2023-10-31T03:27:07;10.57;;;4.93;;
13163;SDS011;6647;53.688;10.746;2023-10-31T03:28:17;10.60;;;4.97;;
13163;SDS011;6647;53.688;10.746;2023-10-31T03:29:19;7.88;;;5.00;;
13163;SDS011;6647;53.688;10.746;2023-10-31T03:30:19;14.43;;;5.20;;
13163;SDS011;6647;53.688;10.746;2023-10-31T03:31:19;8.67;;;5.43;;
13163;SDS011;6647;53.688;10.746;2023-10-31T03:32:20;9.93;;;5.20;;
13163;SDS011;6647;53.688;10.746;2023-10-31T03:33:20;8.37;;;6.00;;
13163;SDS011;6647;53.688;10.746;2023-10-31T03:34:20;5.90;;;5.20;;
13163;SDS011;6647;53.688;10.746;2023-10-31T03:35:21;12.03;;;5.87;;
13163;SDS011;6647;53.688;10.746;2023-10-31T03:36:21;5.97;;;4.83;;
13163;SDS011;6647;53.688;10.746;2023-10-31T03:37:21;7.93;;;5.40;;
13163;SDS011;6647;53.688;10.746;2023-10-31T03:38:22;6.47;;;5.87;;
13163;SDS011;6647;53.688;10.746;2023-10-31T03:39:22;7.60;;;5.30;;
13163;SDS011;6647;53.688;10.746;2023-10-31T03:40:22;6.57;;;5.70;;
13163;SDS011;6647;53.688;10.746;2023-10-31T03:41:23;10.17;;;5.60;;
13163;SDS011;6647;53.688;10.746;2023-10-31T03:42:23;10.43;;;5.53;;
13163;SDS011;6647;53.688;10.746;2023-10-31T03:43:23;7.07;;;5.03;;
13163;SDS011;6647;53.688;10.746;2023-10-31T03:44:24;9.73;;;5.47;;
13163;SDS011;6647;53.688;10.746;2023-10-31T03:45:24;6.60;;;5.33;;
13163;SDS011;6647;53.688;10.746;2023-10-31T03:46:24;24.43;;;6.27;;
13163;SDS011;6647;53.688;10.746;2023-10-31T03:47:25;8.20;;;5.87;;
13163;SDS011;6647;53.688;10.746;2023-10-31T03:48:25;7.53;;;4.87;;
13163;SDS011;6647;53.688;10.746;2023-10-31T03:49:26;10.40;;;5.97;;
13163;SDS011;6647;53.688;10.746;2023-10-31T03:50:26;7.93;;;5.73;;
13163;SDS011;6647;53.688;10.746;2023-10-31T03:51:27;10.13;;;5.77;;
13163;SDS011;6647;53.688;10.746;2023-10-31T03:52:27;10.13;;;5.80;;
13163;SDS011;6647;53.688;10.746;2023-10-31T03:53:27;6.67;;;5.80;;
13163;SDS011;6647;53.688;10.746;2023-10-31T03:54:28;6.60;;;5.77;;
13163;SDS011;6647;53.688;10.746;2023-10-31T03:55:28;13.33;;;6.30;;
13163;SDS011;6647;53.688;10.746;2023-10-31T03:56:30;8.30;;;6.10;;
13163;SDS011;6647;53.688;10.746;2023-10-31T03:57:30;9.63;;;5.63;;
13163;SDS011;6647;53.688;10.746;2023-10-31T03:58:30;7.70;;;6.23;;
13163;SDS011;6647;53.688;10.746;2023-10-31T03:59:31;8.57;;;5.93;;
13163;SDS011;6647;53.688;10.746;2023-10-31T04:00:31;6.30;;;5.67;;
13163;SDS011;6647;53.688;10.746;2023-10-31T04:01:31;7.40;;;5.43;;
13163;SDS011;6647;53.688;10.746;2023-10-31T04:02:32;9.53;;;5.90;;
13163;SDS011;6647;53.688;10.746;2023-10-31T04:03:32;7.73;;;6.00;;
13163;SDS011;6647;53.688;10.746;2023-10-31T04:04:33;8.90;;;5.70;;
13163;SDS011;6647;53.688;10.746;2023-10-31T04:05:33;6.67;;;5.97;;
13163;SDS011;6647;53.688;10.746;2023-10-31T04:06:33;8.97;;;5.57;;
13163;SDS011;6647;53.688;10.746;2023-10-31T04:07:34;6.93;;;5.43;;
13163;SDS011;6647;53.688;10.746;2023-10-31T04:08:34;7.80;;;5.20;;
13163;SDS011;6647;53.688;10.746;2023-10-31T04:09:34;9.40;;;5.30;;
13163;SDS011;6647;53.688;10.746;2023-10-31T04:10:34;7.63;;;5.97;;
13163;SDS011;6647;53.688;10.746;2023-10-31T04:11:35;7.97;;;5.60;;
13163;SDS011;6647;53.688;10.746;2023-10-31T04:12:35;11.03;;;6.13;;
13163;SDS011;6647;53.688;10.746;2023-10-31T04:13:35;6.90;;;5.03;;
13163;SDS011;6647;53.688;10.746;2023-10-31T04:14:36;9.23;;;6.47;;
13163;SDS011;6647;53.688;10.746;2023-10-31T04:15:38;7.60;;;5.88;;
13163;SDS011;6647;53.688;10.746;2023-10-31T04:16:39;9.17;;;5.97;;
13163;SDS011;6647;53.688;10.746;2023-10-31T04:17:40;14.68;;;6.72;;
13163;SDS011;6647;53.688;10.746;2023-10-31T04:18:40;7.13;;;5.80;;
13163;SDS011;6647;53.688;10.746;2023-10-31T04:19:40;6.93;;;5.30;;
13163;SDS011;6647;53.688;10.746;2023-10-31T04:20:41;14.07;;;5.27;;
13163;SDS011;6647;53.688;10.746;2023-10-31T04:21:41;6.40;;;4.70;;
13163;SDS011;6647;53.688;10.746;2023-10-31T04:22:42;14.70;;;5.90;;
13163;SDS011;6647;53.688;10.746;2023-10-31T04:23:42;10.67;;;5.53;;
13163;SDS011;6647;53.688;10.746;2023-10-31T04:24:42;9.87;;;5.93;;
13163;SDS011;6647;53.688;10.746;2023-10-31T04:25:43;7.07;;;5.63;;
13163;SDS011;6647;53.688;10.746;2023-10-31T04:26:43;7.50;;;5.10;;
13163;SDS011;6647;53.688;10.746;2023-10-31T04:27:44;8.33;;;5.17;;
13163;SDS011;6647;53.688;10.746;2023-10-31T04:28:44;6.67;;;5.50;;
13163;SDS011;6647;53.688;10.746;2023-10-31T04:29:44;7.60;;;5.87;;
13163;SDS011;6647;53.688;10.746;2023-10-31T04:30:45;6.73;;;6.10;;
13163;SDS011;6647;53.688;10.746;2023-10-31T04:31:45;7.77;;;5.83;;
13163;SDS011;6647;53.688;10.746;2023-10-31T04:32:45;12.90;;;5.67;;
13163;SDS011;6647;53.688;10.746;2023-10-31T04:33:46;7.73;;;5.67;;
13163;SDS011;6647;53.688;10.746;2023-10-31T04:34:46;9.30;;;5.93;;
13163;SDS011;6647;53.688;10.746;2023-10-31T04:35:46;8.70;;;6.83;;
13163;SDS011;6647;53.688;10.746;2023-10-31T04:36:46;10.57;;;5.73;;
13163;SDS011;6647;53.688;10.746;2023-10-31T04:37:47;7.93;;;6.53;;
13163;SDS011;6647;53.688;10.746;2023-10-31T04:38:47;11.00;;;6.77;;
13163;SDS011;6647;53.688;10.746;2023-10-31T04:39:47;9.10;;;6.10;;
13163;SDS011;6647;53.688;10.746;2023-10-31T04:40:47;8.57;;;5.90;;
13163;SDS011;6647;53.688;10.746;2023-10-31T04:41:48;6.77;;;5.73;;
13163;SDS011;6647;53.688;10.746;2023-10-31T04:42:48;6.00;;;5.40;;
13163;SDS011;6647;53.688;10.746;2023-10-31T04:43:48;11.50;;;5.60;;
13163;SDS011;6647;53.688;10.746;2023-10-31T04:44:48;14.37;;;6.27;;
13163;SDS011;6647;53.688;10.746;2023-10-31T04:45:49;7.57;;;6.27;;
13163;SDS011;6647;53.688;10.746;2023-10-31T04:46:49;9.33;;;6.30;;
13163;SDS011;6647;53.688;10.746;2023-10-31T04:47:49;13.60;;;7.13;;
13163;SDS011;6647;53.688;10.746;2023-10-31T04:48:50;8.67;;;6.60;;
13163;SDS011;6647;53.688;10.746;2023-10-31T04:49:50;6.80;;;6.17;;
13163;SDS011;6647;53.688;10.746;2023-10-31T04:50:50;11.13;;;6.90;;
13163;SDS011;6647;53.688;10.746;2023-10-31T04:51:50;12.03;;;6.97;;
13163;SDS011;6647;53.688;10.746;2023-10-31T04:52:51;8.47;;;6.40;;
13163;SDS011;6647;53.688;10.746;2023-10-31T04:53:51;9.63;;;6.33;;
13163;SDS011;6647;53.688;10.746;2023-10-31T04:54:51;11.73;;;6.80;;
13163;SDS011;6647;53.688;10.746;2023-10-31T04:55:52;10.20;;;6.97;;
13163;SDS011;6647;53.688;10.746;2023-10-31T04:56:52;8.23;;;6.70;;
13163;SDS011;6647;53.688;10.746;2023-10-31T04:57:52;11.20;;;7.37;;
13163;SDS011;6647;53.688;10.746;2023-10-31T04:58:53;7.57;;;6.30;;
13163;SDS011;6647;53.688;10.746;2023-10-31T04:59:53;12.80;;;8.57;;
13163;SDS011;6647;53.688;10.746;2023-10-31T05:00:54;16.73;;;8.70;;
13163;SDS011;6647;53.688;10.746;2023-10-31T05:01:54;13.80;;;8.43;;
13163;SDS011;6647;53.688;10.746;2023-10-31T05:02:55;7.60;;;6.80;;
13163;SDS011;6647;53.688;10.746;2023-10-31T05:03:58;11.88;;;7.78;;
13163;SDS011;6647;53.688;10.746;2023-10-31T05:04:58;13.10;;;7.80;;
13163;SDS011;6647;53.688;10.746;2023-10-31T05:05:58;11.23;;;7.90;;
13163;SDS011;6647;53.688;10.746;2023-10-31T05:06:59;13.33;;;7.73;;
13163;SDS011;6647;53.688;10.746;2023-10-31T05:07:59;11.63;;;7.90;;
13163;SDS011;6647;53.688;10.746;2023-10-31T05:08:59;12.13;;;7.77;;
13163;SDS011;6647;53.688;10.746;2023-10-31T05:10:00;12.37;;;8.07;;
13163;SDS011;6647;53.688;10.746;2023-10-31T05:11:01;13.73;;;8.07;;
13163;SDS011;6647;53.688;10.746;2023-10-31T05:12:01;11.70;;;7.20;;
13163;SDS011;6647;53.688;10.746;2023-10-31T05:13:01;10.47;;;7.93;;
13163;SDS011;6647;53.688;10.746;2023-10-31T05:14:07;15.90;;;8.75;;
13163;SDS011;6647;53.688;10.746;2023-10-31T05:15:09;17.50;;;8.32;;
13163;SDS011;6647;53.688;10.746;2023-10-31T05:16:09;8.83;;;7.53;;
13163;SDS011;6647;53.688;10.746;2023-10-31T05:17:11;15.15;;;9.00;;
13163;SDS011;6647;53.688;10.746;2023-10-31T05:18:12;13.63;;;8.03;;
13163;SDS011;6647;53.688;10.746;2023-10-31T05:19:12;13.67;;;7.63;;
13163;SDS011;6647;53.688;10.746;2023-10-31T05:20:13;11.90;;;8.53;;
13163;SDS011;6647;53.688;10.746;2023-10-31T05:21:18;11.20;;;8.13;;
13163;SDS011;6647;53.688;10.746;2023-10-31T05:22:18;11.20;;;7.03;;
13163;SDS011;6647;53.688;10.746;2023-10-31T05:23:19;10.23;;;8.17;;
13163;SDS011;6647;53.688;10.746;2023-10-31T05:24:19;15.40;;;7.63;;
13163;SDS011;6647;53.688;10.746;2023-10-31T05:25:19;13.70;;;8.17;;
13163;SDS011;6647;53.688;10.746;2023-10-31T05:26:20;14.07;;;8.50;;
13163;SDS011;6647;53.688;10.746;2023-10-31T05:27:20;12.03;;;7.57;;
13163;SDS011;6647;53.688;10.746;2023-10-31T05:28:20;11.80;;;8.30;;
13163;SDS011;6647;53.688;10.746;2023-10-31T05:29:21;10.70;;;7.93;;
13163;SDS011;6647;53.688;10.746;2023-10-31T05:30:21;13.80;;;8.33;;
13163;SDS011;6647;53.688;10.746;2023-10-31T05:31:22;12.07;;;8.93;;
13163;SDS011;6647;53.688;10.746;2023-10-31T05:32:22;12.60;;;8.20;;
13163;SDS011;6647;53.688;10.746;2023-10-31T05:33:22;13.47;;;7.90;;
13163;SDS011;6647;53.688;10.746;2023-10-31T05:34:23;12.70;;;8.03;;
13163;SDS011;6647;53.688;10.746;2023-10-31T05:35:23;9.80;;;7.27;;
13163;SDS011;6647;53.688;10.746;2023-10-31T05:36:25;23.95;;;9.10;;
13163;SDS011;6647;53.688;10.746;2023-10-31T05:37:25;11.93;;;7.83;;
13163;SDS011;6647;53.688;10.746;2023-10-31T05:38:26;9.63;;;8.47;;
13163;SDS011;6647;53.688;10.746;2023-10-31T05:39:26;7.87;;;7.03;;
13163;SDS011;6647;53.688;10.746;2023-10-31T05:40:26;8.20;;;7.17;;
13163;SDS011;6647;53.688;10.746;2023-10-31T05:41:29;11.45;;;8.30;;
13163;SDS011;6647;53.688;10.746;2023-10-31T05:42:29;15.17;;;8.57;;
13163;SDS011;6647;53.688;10.746;2023-10-31T05:43:30;9.13;;;7.80;;
13163;SDS011;6647;53.688;10.746;2023-10-31T05:44:30;10.60;;;8.10;;
13163;SDS011;6647;53.688;10.746;2023-10-31T05:45:30;9.93;;;7.63;;
13163;SDS011;6647;53.688;10.746;2023-10-31T05:46:31;10.33;;;8.90;;
13163;SDS011;6647;53.688;10.746;2023-10-31T05:47:31;10.70;;;8.70;;
13163;SDS011;6647;53.688;10.746;2023-10-31T05:48:32;12.15;;;7.68;;
13163;SDS011;6647;53.688;10.746;2023-10-31T05:49:33;11.63;;;8.73;;
13163;SDS011;6647;53.688;10.746;2023-10-31T05:50:33;10.13;;;9.10;;
13163;SDS011;6647;53.688;10.746;2023-10-31T05:51:33;20.33;;;8.83;;
13163;SDS011;6647;53.688;10.746;2023-10-31T05:52:35;10.20;;;8.75;;
13163;SDS011;6647;53.688;10.746;2023-10-31T05:53:36;23.40;;;10.77;;
13163;SDS011;6647;53.688;10.746;2023-10-31T05:54:36;11.07;;;8.87;;
13163;SDS011;6647;53.688;10.746;2023-10-31T05:55:40;17.70;;;9.40;;
13163;SDS011;6647;53.688;10.746;2023-10-31T05:56:40;16.98;;;9.70;;
13163;SDS011;6647;53.688;10.746;2023-10-31T05:57:41;14.60;;;9.37;;
13163;SDS011;6647;53.688;10.746;2023-10-31T05:58:41;12.87;;;9.33;;
13163;SDS011;6647;53.688;10.746;2023-10-31T05:59:42;13.30;;;8.83;;
13163;SDS011;6647;53.688;10.746;2023-10-31T06:00:42;11.53;;;9.00;;
13163;SDS011;6647;53.688;10.746;2023-10-31T06:01:42;11.53;;;9.83;;
13163;SDS011;6647;53.688;10.746;2023-10-31T06:02:43;10.18;;;8.93;;